Berkeley, California
Current Conditions -  °F | °C
As of 6:53 AM on Saturday 25 Oct 2014 (Local Time) from KOAK Reporting Station
Overcast Overcast  
Wind Chill: 62°   Ceiling: 3300
Heat Index: 62°   Visibility: 10mi
Dew Point: 57°   Wind: 12mph
Humidity: 84%   Direction: 210°SSW
Pressure: 29.97"   Gusts: NA
Location:  37.87°N, 122.27°W
Report Text: KOAK 251353Z 21010KT 10SM FEW006 SCT025 OVC033 17/14 A2997 RMK AO2 RAE48 SLP147 P0010 T01670139
Loading
Personal Weather Stations






























Interactive Weather Map
Tropical Storm Tracking
New forecast layout! Learn more

10-Day Weather Forecast

Advertisements
Track Severe Weather on mobile